Sky Valley, California
Current Conditions -  °F | °C
As of 10:53 PM on Saturday 25 Oct 2014 (Local Time) from KPSP Reporting Station
Clear Clear  
Wind Chill: 82°   Ceiling: Unl
Heat Index: 82°   Visibility: 10mi
Dew Point: 46°   Wind: 3mph
Humidity: 28%   Direction: NA
Pressure: 29.92"   Gusts: NA
Location:  33.8584°N, 116.312°W
Report Text: KPSP 260553Z AUTO VRB03KT 10SM CLR 28/08 A2992 RMK AO2 SLP127 T02780078 10339 20278 50005 TSNO
Loading
Personal Weather Stations






























Interactive Weather Map
Tropical Storm Tracking
New forecast layout! Learn more

10-Day Weather Forecast

Advertisements
Track Severe Weather on mobile